메인 페이지
METAR-TAF:

METAR-TAF

공항 :

셰레메티예보 국제공항

모스크바 Sheremetyevo, 러시아

위도: 55-58N, 경도: 037-25E, 고도: 190m

현재 날씨관측

예보는 35분 전, 09:30시(UTC)에 발표되었습니다.
10kt
온도 10°C
습도 93%
기압 1019 hPa
시정 10km 이상
고도 600ft 상공 흐림
약한이슬비

METAR: UUEE 200930Z 01005MPS 9999 -DZ OVC006 10/09 Q1019 R06C/290045 R06R/290051 NOSIG

시각: 13:05 (10:05 UTC)

예보

예보는 2 시간 12분 전, 07:53시(UTC)에 발표되었습니다.
예보 대상 시간: 20일 09시부터 21일 09시까지 (UTC)
12kt
시정: 6000m
고도 700ft 상공 구름 많음
일시적
20일 09시부터 20일 12시까지 (UTC)
시정: 3100m
고도 400ft 상공 구름 많음
고도 2000ft 상공 구름 보통, 적란운.
약한소나기
전환 중
20일 13시부터 20일 15시까지 (UTC)
고도 1100ft 상공 구름 보통

TAF: UUEE 200753Z 2009/2109 35006MPS 6000 BKN007 TX14/2015Z TN07/2103Z TEMPO 2009/2012 3100 -SHRA BKN004 SCT020CB BECMG 2013/2015 SCT011

4,000개 이상의 공항 관측 자료 및 예보 (METAR 및 TAF 보고).

지도상에서 검색 가능한 기상관측소가 노란 점과 빨간 점으로 표시되어 있습니다.

기상관측소 명을 보려면 표시 위로 마우스를 이동하세요.

날씨 관측과 예보를 보려면 클릭하세요.

지도 변경 : 확대하려면 엑스 표시가 있는 녹색 버튼, 축소하려면 빼기 표시가 있는 녹색 버튼, 다음 페이지의 지도를 보려면 녹색 화살표를 클릭하세요.


METAR-TAF: